AAY3028 KMCO-KTYS
Flight info
| Callsign | AAY3028 |
|---|---|
| Flight time | 1h 29m |
| Altitude | 38000 |
| Route | JEEMY4 PAINN SHRKS Q77 TEUFL/N0446F370 Q77 WIGVO/N0450F380 ODF HIGGI |
| Aircraft | A320/M-SDE3FGHIRWY/LB1 |
Departure
| Time | 2026-04-26 17:44 |
|---|---|
| Airport | Orlando International Airport (KMCO) |
Arrival
| Time | 2026-04-26 19:13 |
|---|---|
| Airport | McGhee Tyson Airport (KTYS) |
| Time | Latitude | Longitude | Altitude | Speed | Heading |
|---|---|---|---|---|---|
| 2026-04-26 17:04 | 28.42632 | -81.31275 | 100 ft | 0 kts | 354° |
| 2026-04-26 17:29 | 28.42610 | -81.31273 | 102 ft | 4 kts | 354° |
| 2026-04-26 17:29 | 28.42583 | -81.31269 | 101 ft | 4 kts | 343° |
| 2026-04-26 17:30 | 28.42564 | -81.31258 | 101 ft | 4 kts | 279° |
| 2026-04-26 17:30 | 28.42563 | -81.31252 | 100 ft | 0 kts | 258° |
| 2026-04-26 17:35 | 28.42559 | -81.31277 | 102 ft | 6 kts | 258° |
| 2026-04-26 17:36 | 28.42548 | -81.31336 | 102 ft | 9 kts | 258° |
| 2026-04-26 17:36 | 28.42532 | -81.31414 | 102 ft | 12 kts | 257° |
| 2026-04-26 17:36 | 28.42511 | -81.31520 | 102 ft | 15 kts | 257° |
| 2026-04-26 17:36 | 28.42563 | -81.31617 | 102 ft | 18 kts | 346° |
| 2026-04-26 17:37 | 28.42685 | -81.31647 | 102 ft | 13 kts | 347° |
| 2026-04-26 17:37 | 28.42710 | -81.31733 | 104 ft | 13 kts | 268° |
| 2026-04-26 17:37 | 28.42739 | -81.31826 | 106 ft | 14 kts | 326° |
| 2026-04-26 17:38 | 28.43005 | -81.31838 | 102 ft | 23 kts | 0° |
| 2026-04-26 17:38 | 28.43179 | -81.31840 | 102 ft | 27 kts | 359° |
| 2026-04-26 17:38 | 28.43316 | -81.31841 | 101 ft | 21 kts | 360° |
| 2026-04-26 17:38 | 28.43473 | -81.31843 | 104 ft | 24 kts | 359° |
| 2026-04-26 17:39 | 28.43638 | -81.31845 | 105 ft | 20 kts | 359° |
| 2026-04-26 17:39 | 28.43785 | -81.31846 | 106 ft | 23 kts | 359° |
| 2026-04-26 17:39 | 28.43922 | -81.31850 | 109 ft | 15 kts | 352° |
| 2026-04-26 17:39 | 28.44029 | -81.31888 | 110 ft | 17 kts | 343° |
| 2026-04-26 17:40 | 28.44164 | -81.31900 | 106 ft | 22 kts | 358° |
| 2026-04-26 17:40 | 28.44219 | -81.31901 | 107 ft | 24 kts | 359° |
| 2026-04-26 17:40 | 28.44496 | -81.31904 | 104 ft | 18 kts | 359° |
| 2026-04-26 17:40 | 28.44639 | -81.31905 | 101 ft | 23 kts | 359° |
| 2026-04-26 17:41 | 28.44782 | -81.31907 | 103 ft | 14 kts | 356° |
| 2026-04-26 17:41 | 28.44826 | -81.31997 | 102 ft | 16 kts | 270° |
| 2026-04-26 17:41 | 28.44825 | -81.32090 | 100 ft | 0 kts | 269° |
| 2026-04-26 17:42 | 28.44824 | -81.32113 | 100 ft | 7 kts | 269° |
| 2026-04-26 17:42 | 28.44825 | -81.32188 | 101 ft | 12 kts | 270° |
| 2026-04-26 17:42 | 28.44810 | -81.32231 | 100 ft | 4 kts | 182° |
| 2026-04-26 17:43 | 28.44773 | -81.32230 | 102 ft | 16 kts | 179° |
| 2026-04-26 17:43 | 28.44392 | -81.32226 | 106 ft | 89 kts | 179° |
| 2026-04-26 17:43 | 28.43571 | -81.32218 | 104 ft | 145 kts | 179° |
| 2026-04-26 17:43 | 28.42460 | -81.32222 | 469 ft | 156 kts | 184° |
| 2026-04-26 17:44 | 28.41381 | -81.32191 | 1104 ft | 158 kts | 183° |
| 2026-04-26 17:44 | 28.40265 | -81.32178 | 1654 ft | 162 kts | 193° |
| 2026-04-26 17:44 | 28.39182 | -81.32619 | 2016 ft | 173 kts | 218° |
| 2026-04-26 17:44 | 28.38127 | -81.33382 | 2370 ft | 190 kts | 213° |
| 2026-04-26 17:45 | 28.36885 | -81.34104 | 2645 ft | 217 kts | 209° |
| 2026-04-26 17:45 | 28.35466 | -81.34917 | 3063 ft | 241 kts | 213° |
| 2026-04-26 17:45 | 28.34205 | -81.36239 | 3605 ft | 254 kts | 233° |
| 2026-04-26 17:45 | 28.33079 | -81.37811 | 4423 ft | 259 kts | 233° |
| 2026-04-26 17:46 | 28.32033 | -81.39479 | 5298 ft | 261 kts | 248° |
| 2026-04-26 17:46 | 28.31579 | -81.41478 | 6175 ft | 263 kts | 262° |
| 2026-04-26 17:46 | 28.31309 | -81.43557 | 6766 ft | 267 kts | 263° |
| 2026-04-26 17:46 | 28.31056 | -81.45646 | 6958 ft | 266 kts | 263° |
| 2026-04-26 17:47 | 28.30803 | -81.47725 | 7020 ft | 267 kts | 263° |
| 2026-04-26 17:47 | 28.30718 | -81.48431 | 7025 ft | 267 kts | 263° |
| 2026-04-26 17:47 | 28.30299 | -81.51896 | 7026 ft | 267 kts | 263° |
| 2026-04-26 17:47 | 28.30052 | -81.53985 | 7026 ft | 267 kts | 263° |
| 2026-04-26 17:48 | 28.29893 | -81.55373 | 7026 ft | 268 kts | 263° |
| 2026-04-26 17:48 | 28.29649 | -81.57463 | 7004 ft | 267 kts | 263° |
| 2026-04-26 17:48 | 28.29407 | -81.59554 | 7006 ft | 267 kts | 263° |
| 2026-04-26 17:48 | 28.29166 | -81.61634 | 7004 ft | 266 kts | 263° |
| 2026-04-26 17:49 | 28.28924 | -81.63720 | 7006 ft | 267 kts | 263° |
| 2026-04-26 17:49 | 28.28683 | -81.65806 | 7008 ft | 267 kts | 264° |
| 2026-04-26 17:49 | 28.28786 | -81.67911 | 7151 ft | 274 kts | 287° |
| 2026-04-26 17:49 | 28.29670 | -81.69817 | 8001 ft | 276 kts | 309° |
| 2026-04-26 17:50 | 28.31187 | -81.71147 | 8900 ft | 281 kts | 335° |
| 2026-04-26 17:50 | 28.33110 | -81.71583 | 9772 ft | 289 kts | 1° |
| 2026-04-26 17:50 | 28.35086 | -81.70997 | 10395 ft | 304 kts | 20° |
| 2026-04-26 17:50 | 28.37116 | -81.70033 | 10644 ft | 328 kts | 21° |
| 2026-04-26 17:51 | 28.39241 | -81.68981 | 11165 ft | 339 kts | 21° |
| 2026-04-26 17:51 | 28.41421 | -81.67886 | 11893 ft | 343 kts | 21° |
| 2026-04-26 17:51 | 28.43614 | -81.66784 | 12633 ft | 347 kts | 21° |
| 2026-04-26 17:51 | 28.45833 | -81.65678 | 13365 ft | 350 kts | 20° |
| 2026-04-26 17:52 | 28.48078 | -81.64568 | 14033 ft | 354 kts | 20° |
| 2026-04-26 17:52 | 28.50345 | -81.63451 | 14651 ft | 357 kts | 20° |
| 2026-04-26 17:52 | 28.52637 | -81.62325 | 15265 ft | 361 kts | 20° |
| 2026-04-26 17:52 | 28.54954 | -81.61186 | 15877 ft | 364 kts | 20° |
| 2026-04-26 17:53 | 28.57260 | -81.60054 | 16476 ft | 367 kts | 20° |
| 2026-04-26 17:53 | 28.59619 | -81.58895 | 17079 ft | 371 kts | 20° |
| 2026-04-26 17:53 | 28.61997 | -81.57724 | 17675 ft | 374 kts | 20° |
| 2026-04-26 17:54 | 28.66828 | -81.55349 | 18788 ft | 381 kts | 20° |
| 2026-04-26 17:54 | 28.69270 | -81.54147 | 19321 ft | 385 kts | 20° |
| 2026-04-26 17:54 | 28.71742 | -81.52927 | 19832 ft | 389 kts | 20° |
| 2026-04-26 17:54 | 28.74233 | -81.51698 | 20351 ft | 392 kts | 20° |
| 2026-04-26 17:55 | 28.76752 | -81.50455 | 20869 ft | 396 kts | 20° |
| 2026-04-26 17:55 | 28.79290 | -81.49203 | 21389 ft | 400 kts | 20° |
| 2026-04-26 17:55 | 28.81852 | -81.47938 | 21909 ft | 403 kts | 21° |
| 2026-04-26 17:55 | 28.84440 | -81.46658 | 22434 ft | 407 kts | 21° |
| 2026-04-26 17:56 | 28.87047 | -81.45366 | 22945 ft | 410 kts | 21° |
| 2026-04-26 17:56 | 28.92343 | -81.42775 | 23863 ft | 416 kts | 17° |
| 2026-04-26 17:57 | 28.98009 | -81.41659 | 24697 ft | 414 kts | 356° |
| 2026-04-26 17:57 | 29.00881 | -81.41901 | 25084 ft | 415 kts | 351° |
| 2026-04-26 17:57 | 29.03761 | -81.42227 | 25488 ft | 417 kts | 351° |
| 2026-04-26 17:57 | 29.06650 | -81.42552 | 25888 ft | 418 kts | 351° |
| 2026-04-26 17:58 | 29.15410 | -81.43479 | 27060 ft | 424 kts | 352° |
| 2026-04-26 17:59 | 29.21312 | -81.44013 | 27806 ft | 427 kts | 352° |
| 2026-04-26 17:59 | 29.24286 | -81.44283 | 28173 ft | 429 kts | 352° |
| 2026-04-26 17:59 | 29.27266 | -81.44559 | 28538 ft | 431 kts | 351° |
| 2026-04-26 17:59 | 29.30261 | -81.44843 | 28906 ft | 432 kts | 351° |
| 2026-04-26 18:00 | 29.33262 | -81.45132 | 29257 ft | 434 kts | 351° |
| 2026-04-26 18:00 | 29.36274 | -81.45421 | 29600 ft | 435 kts | 351° |
| 2026-04-26 18:00 | 29.39297 | -81.45709 | 29926 ft | 437 kts | 351° |
| 2026-04-26 18:00 | 29.42298 | -81.45992 | 30209 ft | 438 kts | 351° |
| 2026-04-26 18:01 | 29.45342 | -81.46279 | 30481 ft | 439 kts | 351° |
| 2026-04-26 18:01 | 29.48392 | -81.46568 | 30749 ft | 440 kts | 351° |
| 2026-04-26 18:01 | 29.51444 | -81.46860 | 31009 ft | 441 kts | 351° |
| 2026-04-26 18:01 | 29.54506 | -81.47155 | 31260 ft | 442 kts | 351° |
| 2026-04-26 18:02 | 29.57566 | -81.47448 | 31593 ft | 440 kts | 350° |
| 2026-04-26 18:02 | 29.59581 | -81.47638 | 31884 ft | 437 kts | 350° |
| 2026-04-26 18:02 | 29.63626 | -81.48005 | 32389 ft | 434 kts | 350° |
| 2026-04-26 18:02 | 29.66626 | -81.48271 | 32762 ft | 432 kts | 350° |
| 2026-04-26 18:03 | 29.69614 | -81.48536 | 33250 ft | 426 kts | 350° |
| 2026-04-26 18:03 | 29.72543 | -81.48795 | 33905 ft | 418 kts | 349° |
| 2026-04-26 18:03 | 29.75417 | -81.49050 | 34496 ft | 409 kts | 349° |
| 2026-04-26 18:03 | 29.78220 | -81.49301 | 35091 ft | 400 kts | 349° |
| 2026-04-26 18:04 | 29.80970 | -81.49551 | 35700 ft | 391 kts | 349° |
| 2026-04-26 18:04 | 29.83642 | -81.49798 | 36268 ft | 383 kts | 349° |
| 2026-04-26 18:04 | 29.86311 | -81.50048 | 36417 ft | 386 kts | 349° |
| 2026-04-26 18:05 | 29.91546 | -81.51199 | 36671 ft | 382 kts | 338° |
| 2026-04-26 18:05 | 29.94050 | -81.52094 | 36821 ft | 383 kts | 338° |
| 2026-04-26 18:05 | 29.96602 | -81.53007 | 36937 ft | 385 kts | 338° |
| 2026-04-26 18:06 | 30.01791 | -81.54862 | 36955 ft | 389 kts | 338° |
| 2026-04-26 18:06 | 30.06958 | -81.56709 | 36948 ft | 389 kts | 338° |
| 2026-04-26 18:07 | 30.12090 | -81.58550 | 36951 ft | 389 kts | 338° |
| 2026-04-26 18:07 | 30.17237 | -81.60391 | 36952 ft | 385 kts | 338° |
| 2026-04-26 18:08 | 30.22355 | -81.62224 | 36956 ft | 385 kts | 338° |
| 2026-04-26 18:08 | 30.27462 | -81.64062 | 36954 ft | 384 kts | 338° |
| 2026-04-26 18:09 | 30.32573 | -81.65905 | 36958 ft | 384 kts | 338° |
| 2026-04-26 18:09 | 30.37677 | -81.67746 | 36929 ft | 384 kts | 338° |
| 2026-04-26 18:10 | 30.42778 | -81.69585 | 36925 ft | 384 kts | 338° |
| 2026-04-26 18:10 | 30.47886 | -81.71422 | 36924 ft | 384 kts | 338° |
| 2026-04-26 18:11 | 30.52989 | -81.73263 | 36925 ft | 384 kts | 338° |
| 2026-04-26 18:11 | 30.58093 | -81.75116 | 36926 ft | 384 kts | 338° |
| 2026-04-26 18:12 | 30.63232 | -81.76835 | 36931 ft | 388 kts | 344° |
| 2026-04-26 18:12 | 30.68570 | -81.77888 | 36936 ft | 389 kts | 344° |
| 2026-04-26 18:13 | 30.73898 | -81.78955 | 36930 ft | 388 kts | 344° |
| 2026-04-26 18:13 | 30.79188 | -81.80018 | 36934 ft | 388 kts | 344° |
| 2026-04-26 18:14 | 30.84512 | -81.81082 | 36942 ft | 388 kts | 344° |
| 2026-04-26 18:14 | 30.89837 | -81.82153 | 36940 ft | 388 kts | 344° |
| 2026-04-26 18:15 | 30.95159 | -81.83220 | 36931 ft | 388 kts | 344° |
| 2026-04-26 18:15 | 31.00481 | -81.84286 | 36930 ft | 388 kts | 344° |
| 2026-04-26 18:16 | 31.05810 | -81.85360 | 36930 ft | 388 kts | 344° |
| 2026-04-26 18:16 | 31.13793 | -81.86972 | 36933 ft | 388 kts | 344° |
| 2026-04-26 18:17 | 31.19112 | -81.88049 | 36932 ft | 388 kts | 344° |
| 2026-04-26 18:17 | 31.24433 | -81.89119 | 36941 ft | 388 kts | 344° |
| 2026-04-26 18:18 | 31.29759 | -81.90190 | 36942 ft | 388 kts | 343° |
| 2026-04-26 18:18 | 31.35080 | -81.91271 | 36949 ft | 388 kts | 343° |
| 2026-04-26 18:19 | 31.40402 | -81.92356 | 36956 ft | 388 kts | 343° |
| 2026-04-26 18:19 | 31.45718 | -81.93437 | 36961 ft | 388 kts | 343° |
| 2026-04-26 18:20 | 31.51005 | -81.94514 | 36964 ft | 388 kts | 343° |
| 2026-04-26 18:20 | 31.54558 | -81.95240 | 36972 ft | 388 kts | 343° |
| 2026-04-26 18:21 | 31.61652 | -81.96679 | 36959 ft | 389 kts | 343° |
| 2026-04-26 18:21 | 31.66985 | -81.97760 | 36938 ft | 389 kts | 343° |
| 2026-04-26 18:22 | 31.72316 | -81.98849 | 36935 ft | 389 kts | 343° |
| 2026-04-26 18:22 | 31.77648 | -81.99937 | 36937 ft | 389 kts | 343° |
| 2026-04-26 18:23 | 31.82979 | -82.01035 | 36979 ft | 389 kts | 343° |
| 2026-04-26 18:23 | 31.88367 | -82.01863 | 36941 ft | 396 kts | 351° |
| 2026-04-26 18:24 | 31.93884 | -82.02047 | 36941 ft | 396 kts | 351° |
| 2026-04-26 18:24 | 31.99396 | -82.02229 | 36942 ft | 396 kts | 351° |
| 2026-04-26 18:25 | 32.04911 | -82.02419 | 36941 ft | 397 kts | 351° |
| 2026-04-26 18:25 | 32.10430 | -82.02604 | 36962 ft | 397 kts | 351° |
| 2026-04-26 18:26 | 32.15952 | -82.02798 | 36935 ft | 397 kts | 351° |
| 2026-04-26 18:26 | 32.21476 | -82.02997 | 36935 ft | 397 kts | 351° |
| 2026-04-26 18:27 | 32.26970 | -82.03191 | 36934 ft | 397 kts | 351° |
| 2026-04-26 18:27 | 32.32499 | -82.03381 | 36935 ft | 397 kts | 351° |
| 2026-04-26 18:28 | 32.38025 | -82.03563 | 36959 ft | 398 kts | 350° |
| 2026-04-26 18:28 | 32.43577 | -82.03794 | 36943 ft | 396 kts | 346° |
| 2026-04-26 18:29 | 32.48742 | -82.05510 | 36943 ft | 381 kts | 329° |
| 2026-04-26 18:29 | 32.53552 | -82.08154 | 36943 ft | 381 kts | 330° |
| 2026-04-26 18:30 | 32.58373 | -82.10797 | 36944 ft | 381 kts | 330° |
| 2026-04-26 18:30 | 32.63190 | -82.13438 | 36946 ft | 381 kts | 330° |
| 2026-04-26 18:31 | 32.68016 | -82.16089 | 36944 ft | 383 kts | 330° |
| 2026-04-26 18:31 | 32.72851 | -82.18745 | 36948 ft | 383 kts | 330° |
| 2026-04-26 18:32 | 32.77698 | -82.21410 | 36950 ft | 383 kts | 329° |
| 2026-04-26 18:32 | 32.82537 | -82.24075 | 36950 ft | 383 kts | 330° |
| 2026-04-26 18:33 | 32.87372 | -82.26745 | 36953 ft | 384 kts | 329° |
| 2026-04-26 18:33 | 32.92215 | -82.29419 | 36982 ft | 383 kts | 330° |
| 2026-04-26 18:34 | 32.96249 | -82.31646 | 36955 ft | 385 kts | 330° |
| 2026-04-26 18:34 | 33.01100 | -82.34338 | 36955 ft | 385 kts | 330° |
| 2026-04-26 18:35 | 33.06745 | -82.37470 | 36956 ft | 385 kts | 330° |
| 2026-04-26 18:35 | 33.10814 | -82.39725 | 36956 ft | 385 kts | 330° |
| 2026-04-26 18:36 | 33.15666 | -82.42423 | 36964 ft | 384 kts | 330° |
| 2026-04-26 18:36 | 33.20477 | -82.45104 | 36964 ft | 384 kts | 330° |
| 2026-04-26 18:37 | 33.25333 | -82.47804 | 36968 ft | 384 kts | 330° |
| 2026-04-26 18:37 | 33.30179 | -82.50507 | 37014 ft | 384 kts | 330° |
| 2026-04-26 18:38 | 33.35019 | -82.53211 | 37026 ft | 384 kts | 330° |
| 2026-04-26 18:38 | 33.39863 | -82.55927 | 37039 ft | 384 kts | 330° |
| 2026-04-26 18:39 | 33.44701 | -82.58636 | 37051 ft | 384 kts | 330° |
| 2026-04-26 18:39 | 33.49552 | -82.61353 | 37049 ft | 385 kts | 330° |
| 2026-04-26 18:40 | 33.54412 | -82.64075 | 37049 ft | 385 kts | 330° |
| 2026-04-26 18:40 | 33.59230 | -82.66789 | 37039 ft | 385 kts | 330° |
| 2026-04-26 18:41 | 33.64089 | -82.69524 | 37022 ft | 386 kts | 330° |
| 2026-04-26 18:41 | 33.68949 | -82.72261 | 37007 ft | 385 kts | 330° |
| 2026-04-26 18:42 | 33.73798 | -82.75006 | 36995 ft | 385 kts | 330° |
| 2026-04-26 18:42 | 33.78661 | -82.77751 | 37007 ft | 386 kts | 330° |
| 2026-04-26 18:43 | 33.83516 | -82.80486 | 37008 ft | 385 kts | 330° |
| 2026-04-26 18:43 | 33.88369 | -82.83237 | 37006 ft | 385 kts | 330° |
| 2026-04-26 18:44 | 33.93208 | -82.85987 | 37000 ft | 385 kts | 330° |
| 2026-04-26 18:44 | 33.98019 | -82.88723 | 37003 ft | 385 kts | 330° |
| 2026-04-26 18:45 | 34.02863 | -82.91476 | 37002 ft | 386 kts | 330° |
| 2026-04-26 18:45 | 34.07724 | -82.94243 | 37013 ft | 386 kts | 330° |
| 2026-04-26 18:46 | 34.12586 | -82.97017 | 37008 ft | 387 kts | 330° |
| 2026-04-26 18:46 | 34.17457 | -82.99790 | 36997 ft | 387 kts | 330° |
| 2026-04-26 18:47 | 34.22323 | -83.02568 | 36991 ft | 387 kts | 330° |
| 2026-04-26 18:47 | 34.27185 | -83.05349 | 36983 ft | 387 kts | 330° |
| 2026-04-26 18:48 | 34.32053 | -83.08129 | 36980 ft | 387 kts | 330° |
| 2026-04-26 18:48 | 34.34481 | -83.09520 | 36548 ft | 386 kts | 330° |
| 2026-04-26 18:48 | 34.36907 | -83.10916 | 35907 ft | 386 kts | 330° |
| 2026-04-26 18:49 | 34.39328 | -83.12310 | 35510 ft | 386 kts | 330° |
| 2026-04-26 18:49 | 34.41729 | -83.13694 | 35147 ft | 387 kts | 330° |
| 2026-04-26 18:49 | 34.44182 | -83.15107 | 34788 ft | 385 kts | 330° |
| 2026-04-26 18:49 | 34.46562 | -83.16475 | 34464 ft | 381 kts | 329° |
| 2026-04-26 18:50 | 34.48977 | -83.17864 | 34115 ft | 378 kts | 329° |
| 2026-04-26 18:50 | 34.51311 | -83.19208 | 33823 ft | 375 kts | 329° |
| 2026-04-26 18:50 | 34.53669 | -83.20567 | 33553 ft | 374 kts | 329° |
| 2026-04-26 18:50 | 34.56012 | -83.21916 | 33306 ft | 372 kts | 330° |
| 2026-04-26 18:51 | 34.58329 | -83.23249 | 32889 ft | 366 kts | 330° |
| 2026-04-26 18:51 | 34.60612 | -83.24567 | 32425 ft | 361 kts | 329° |
| 2026-04-26 18:51 | 34.62867 | -83.25870 | 31985 ft | 357 kts | 330° |
| 2026-04-26 18:51 | 34.65107 | -83.27143 | 31514 ft | 353 kts | 330° |
| 2026-04-26 18:52 | 34.67318 | -83.28413 | 31075 ft | 350 kts | 329° |
| 2026-04-26 18:52 | 34.69524 | -83.29705 | 30604 ft | 357 kts | 329° |
| 2026-04-26 18:52 | 34.71767 | -83.31048 | 29891 ft | 363 kts | 329° |
| 2026-04-26 18:52 | 34.74035 | -83.32480 | 28903 ft | 370 kts | 328° |
| 2026-04-26 18:53 | 34.76323 | -83.33963 | 27959 ft | 376 kts | 328° |
| 2026-04-26 18:53 | 34.78645 | -83.35476 | 27132 ft | 379 kts | 329° |
| 2026-04-26 18:53 | 34.80952 | -83.36964 | 26781 ft | 371 kts | 329° |
| 2026-04-26 18:53 | 34.83213 | -83.38409 | 26364 ft | 365 kts | 329° |
| 2026-04-26 18:54 | 34.85454 | -83.39835 | 25948 ft | 361 kts | 329° |
| 2026-04-26 18:54 | 34.87665 | -83.41243 | 25538 ft | 357 kts | 329° |
| 2026-04-26 18:54 | 34.89857 | -83.42638 | 25090 ft | 354 kts | 329° |
| 2026-04-26 18:54 | 34.92028 | -83.44020 | 24671 ft | 350 kts | 330° |
| 2026-04-26 18:55 | 34.94148 | -83.45370 | 24234 ft | 346 kts | 330° |
| 2026-04-26 18:55 | 34.96271 | -83.46719 | 23819 ft | 343 kts | 330° |
| 2026-04-26 18:55 | 34.98380 | -83.48064 | 23351 ft | 340 kts | 330° |
| 2026-04-26 18:55 | 35.00465 | -83.49400 | 22904 ft | 336 kts | 330° |
| 2026-04-26 18:56 | 35.02526 | -83.50722 | 22474 ft | 333 kts | 330° |
| 2026-04-26 18:56 | 35.04567 | -83.52030 | 22044 ft | 330 kts | 330° |
| 2026-04-26 18:56 | 35.06590 | -83.53328 | 21625 ft | 327 kts | 330° |
| 2026-04-26 18:56 | 35.08596 | -83.54615 | 21215 ft | 324 kts | 331° |
| 2026-04-26 18:57 | 35.10593 | -83.55893 | 20797 ft | 323 kts | 331° |
| 2026-04-26 18:57 | 35.11910 | -83.56735 | 20527 ft | 322 kts | 331° |
| 2026-04-26 18:57 | 35.14560 | -83.58429 | 19978 ft | 321 kts | 331° |
| 2026-04-26 18:57 | 35.16534 | -83.59698 | 19582 ft | 320 kts | 331° |
| 2026-04-26 18:58 | 35.18503 | -83.60966 | 19179 ft | 319 kts | 331° |
| 2026-04-26 18:58 | 35.20465 | -83.62230 | 18775 ft | 318 kts | 331° |
| 2026-04-26 18:58 | 35.22425 | -83.63489 | 18379 ft | 318 kts | 331° |
| 2026-04-26 18:58 | 35.24375 | -83.64743 | 17935 ft | 317 kts | 332° |
| 2026-04-26 18:59 | 35.26321 | -83.65996 | 17519 ft | 314 kts | 332° |
| 2026-04-26 18:59 | 35.28251 | -83.67236 | 17122 ft | 313 kts | 332° |
| 2026-04-26 18:59 | 35.30169 | -83.68469 | 16734 ft | 311 kts | 333° |
| 2026-04-26 18:59 | 35.32073 | -83.69694 | 16353 ft | 309 kts | 333° |
| 2026-04-26 19:00 | 35.33947 | -83.70901 | 15978 ft | 308 kts | 334° |
| 2026-04-26 19:00 | 35.35842 | -83.72125 | 15602 ft | 307 kts | 334° |
| 2026-04-26 19:00 | 35.37728 | -83.73345 | 15223 ft | 307 kts | 334° |
| 2026-04-26 19:00 | 35.39615 | -83.74568 | 14849 ft | 307 kts | 335° |
| 2026-04-26 19:01 | 35.41509 | -83.75794 | 14467 ft | 308 kts | 335° |
| 2026-04-26 19:01 | 35.43313 | -83.77242 | 14075 ft | 313 kts | 321° |
| 2026-04-26 19:01 | 35.44728 | -83.79303 | 13599 ft | 322 kts | 303° |
| 2026-04-26 19:01 | 35.45603 | -83.81854 | 13077 ft | 328 kts | 288° |
| 2026-04-26 19:02 | 35.46238 | -83.84552 | 12564 ft | 331 kts | 287° |
| 2026-04-26 19:02 | 35.46881 | -83.87272 | 12055 ft | 333 kts | 287° |
| 2026-04-26 19:02 | 35.47530 | -83.90005 | 11523 ft | 335 kts | 287° |
| 2026-04-26 19:02 | 35.47972 | -83.91862 | 11157 ft | 336 kts | 287° |
| 2026-04-26 19:03 | 35.48843 | -83.95520 | 10448 ft | 339 kts | 287° |
| 2026-04-26 19:03 | 35.49504 | -83.98309 | 9977 ft | 339 kts | 287° |
| 2026-04-26 19:03 | 35.50145 | -84.01028 | 9817 ft | 325 kts | 287° |
| 2026-04-26 19:03 | 35.50764 | -84.03663 | 9528 ft | 316 kts | 287° |
| 2026-04-26 19:04 | 35.51368 | -84.06237 | 8886 ft | 312 kts | 287° |
| 2026-04-26 19:04 | 35.51964 | -84.08765 | 8307 ft | 304 kts | 287° |
| 2026-04-26 19:04 | 35.52545 | -84.11235 | 7790 ft | 299 kts | 287° |
| 2026-04-26 19:04 | 35.53119 | -84.13678 | 7320 ft | 297 kts | 287° |
| 2026-04-26 19:05 | 35.54255 | -84.18523 | 6382 ft | 293 kts | 286° |
| 2026-04-26 19:05 | 35.54809 | -84.20891 | 5880 ft | 282 kts | 287° |
| 2026-04-26 19:05 | 35.55400 | -84.23130 | 5455 ft | 269 kts | 298° |
| 2026-04-26 19:06 | 35.56475 | -84.24878 | 5048 ft | 254 kts | 323° |
| 2026-04-26 19:06 | 35.57952 | -84.25909 | 4648 ft | 239 kts | 345° |
| 2026-04-26 19:06 | 35.59559 | -84.26159 | 4343 ft | 229 kts | 6° |
| 2026-04-26 19:06 | 35.61053 | -84.25707 | 4181 ft | 217 kts | 27° |
| 2026-04-26 19:07 | 35.62282 | -84.24684 | 4006 ft | 213 kts | 45° |
| 2026-04-26 19:07 | 35.63159 | -84.23252 | 3842 ft | 210 kts | 58° |
| 2026-04-26 19:07 | 35.63932 | -84.21743 | 3663 ft | 208 kts | 57° |
| 2026-04-26 19:07 | 35.64713 | -84.20235 | 3495 ft | 209 kts | 56° |
| 2026-04-26 19:08 | 35.65495 | -84.18732 | 3314 ft | 208 kts | 57° |
| 2026-04-26 19:08 | 35.66278 | -84.17241 | 3142 ft | 205 kts | 53° |
| 2026-04-26 19:08 | 35.67204 | -84.15965 | 3031 ft | 194 kts | 43° |
| 2026-04-26 19:08 | 35.68147 | -84.14833 | 2981 ft | 185 kts | 45° |
| 2026-04-26 19:09 | 35.69068 | -84.13717 | 2941 ft | 187 kts | 44° |
| 2026-04-26 19:09 | 35.69991 | -84.12598 | 2901 ft | 185 kts | 44° |
| 2026-04-26 19:09 | 35.70912 | -84.11478 | 2852 ft | 185 kts | 45° |
| 2026-04-26 19:09 | 35.71821 | -84.10371 | 2800 ft | 185 kts | 45° |
| 2026-04-26 19:10 | 35.72725 | -84.09272 | 2768 ft | 177 kts | 44° |
| 2026-04-26 19:10 | 35.73557 | -84.08261 | 2723 ft | 160 kts | 45° |
| 2026-04-26 19:10 | 35.74323 | -84.07331 | 2521 ft | 149 kts | 47° |
| 2026-04-26 19:10 | 35.75023 | -84.06462 | 2349 ft | 137 kts | 47° |
| 2026-04-26 19:11 | 35.75701 | -84.05630 | 2141 ft | 135 kts | 45° |
| 2026-04-26 19:11 | 35.76375 | -84.04814 | 1979 ft | 136 kts | 45° |
| 2026-04-26 19:11 | 35.77054 | -84.03991 | 1790 ft | 137 kts | 44° |
| 2026-04-26 19:11 | 35.77727 | -84.03166 | 1657 ft | 143 kts | 45° |
| 2026-04-26 19:12 | 35.78422 | -84.02323 | 1441 ft | 137 kts | 44° |
| 2026-04-26 19:12 | 35.79093 | -84.01509 | 1247 ft | 134 kts | 43° |
| 2026-04-26 19:12 | 35.79778 | -84.00688 | 1074 ft | 135 kts | 42° |
| 2026-04-26 19:12 | 35.80425 | -83.99895 | 986 ft | 124 kts | 42° |
| 2026-04-26 19:13 | 35.80949 | -83.99253 | 978 ft | 80 kts | 44° |
| 2026-04-26 19:13 | 35.81206 | -83.98942 | 983 ft | 21 kts | 44° |
| 2026-04-26 19:13 | 35.81310 | -83.98817 | 977 ft | 20 kts | 51° |
| 2026-04-26 19:13 | 35.81408 | -83.98692 | 980 ft | 20 kts | 44° |
| 2026-04-26 19:14 | 35.81507 | -83.98572 | 984 ft | 20 kts | 45° |
| 2026-04-26 19:14 | 35.81603 | -83.98454 | 984 ft | 19 kts | 44° |
| 2026-04-26 19:14 | 35.81611 | -83.98343 | 987 ft | 10 kts | 116° |
| 2026-04-26 19:14 | 35.81593 | -83.98328 | 986 ft | 5 kts | 161° |
| 2026-04-26 19:15 | 35.81593 | -83.98327 | 986 ft | 0 kts | 163° |
| 2026-04-26 19:16 | 35.81569 | -83.98335 | 988 ft | 7 kts | 206° |
| 2026-04-26 19:16 | 35.81531 | -83.98377 | 989 ft | 7 kts | 224° |
| 2026-04-26 19:17 | 35.81493 | -83.98423 | 986 ft | 8 kts | 225° |
| 2026-04-26 19:17 | 35.81453 | -83.98472 | 983 ft | 8 kts | 225° |
| 2026-04-26 19:17 | 35.81411 | -83.98524 | 982 ft | 10 kts | 225° |
| 2026-04-26 19:17 | 35.81355 | -83.98592 | 983 ft | 13 kts | 226° |
| 2026-04-26 19:18 | 35.81284 | -83.98679 | 982 ft | 17 kts | 224° |
| 2026-04-26 19:18 | 35.81195 | -83.98785 | 983 ft | 15 kts | 224° |
| 2026-04-26 19:18 | 35.81117 | -83.98881 | 981 ft | 18 kts | 223° |
| 2026-04-26 19:18 | 35.81021 | -83.98998 | 979 ft | 22 kts | 224° |
| 2026-04-26 19:19 | 35.80937 | -83.99035 | 978 ft | 15 kts | 176° |
| 2026-04-26 19:19 | 35.80870 | -83.99059 | 976 ft | 1 kts | 211° |
| 2026-04-26 19:19 | 35.80851 | -83.99078 | 980 ft | 5 kts | 219° |
| 2026-04-26 19:19 | 35.80813 | -83.99115 | 974 ft | 8 kts | 220° |
| 2026-04-26 19:20 | 35.80774 | -83.99152 | 973 ft | 5 kts | 200° |
| 2026-04-26 19:20 | 35.80762 | -83.99149 | 973 ft | 6 kts | 167° |
| 2026-04-26 19:20 | 35.80726 | -83.99111 | 976 ft | 3 kts | 134° |
| 2026-04-26 19:20 | 35.80723 | -83.99106 | 975 ft | 0 kts | 134° |